sensor_id;sensor_type;location;lat;lon;timestamp;P1;durP1;ratioP1;P2;durP2;ratioP2
80123;SDS011;69433;48.642;9.142;2023-08-01T00:00:28;6.30;;;3.17;;
80123;SDS011;69433;48.642;9.142;2023-08-01T00:02:54;6.82;;;3.33;;
80123;SDS011;69433;48.642;9.142;2023-08-01T00:05:20;7.40;;;3.25;;
80123;SDS011;69433;48.642;9.142;2023-08-01T00:07:45;8.30;;;3.60;;
80123;SDS011;69433;48.642;9.142;2023-08-01T00:10:10;5.80;;;3.05;;
80123;SDS011;69433;48.642;9.142;2023-08-01T00:12:35;5.93;;;3.25;;
80123;SDS011;69433;48.642;9.142;2023-08-01T00:15:01;9.07;;;3.10;;
80123;SDS011;69433;48.642;9.142;2023-08-01T00:17:27;4.78;;;3.17;;
80123;SDS011;69433;48.642;9.142;2023-08-01T00:19:52;4.97;;;3.17;;
80123;SDS011;69433;48.642;9.142;2023-08-01T00:22:17;7.43;;;3.30;;
80123;SDS011;69433;48.642;9.142;2023-08-01T00:24:43;6.38;;;3.03;;
80123;SDS011;69433;48.642;9.142;2023-08-01T00:27:08;6.22;;;3.35;;
80123;SDS011;69433;48.642;9.142;2023-08-01T00:29:35;5.00;;;3.33;;
80123;SDS011;69433;48.642;9.142;2023-08-01T00:32:01;7.28;;;3.42;;
80123;SDS011;69433;48.642;9.142;2023-08-01T00:34:26;5.45;;;3.00;;
80123;SDS011;69433;48.642;9.142;2023-08-01T00:36:52;7.38;;;3.60;;
80123;SDS011;69433;48.642;9.142;2023-08-01T00:39:17;5.68;;;3.33;;
80123;SDS011;69433;48.642;9.142;2023-08-01T00:41:42;5.80;;;3.25;;
80123;SDS011;69433;48.642;9.142;2023-08-01T00:44:08;5.90;;;3.38;;
80123;SDS011;69433;48.642;9.142;2023-08-01T00:46:33;5.75;;;3.17;;
80123;SDS011;69433;48.642;9.142;2023-08-01T00:48:58;5.65;;;3.28;;
80123;SDS011;69433;48.642;9.142;2023-08-01T00:51:25;7.20;;;3.45;;
80123;SDS011;69433;48.642;9.142;2023-08-01T00:53:51;5.20;;;3.13;;
80123;SDS011;69433;48.642;9.142;2023-08-01T00:56:17;6.40;;;3.22;;
80123;SDS011;69433;48.642;9.142;2023-08-01T00:58:43;5.32;;;3.20;;
80123;SDS011;69433;48.642;9.142;2023-08-01T01:01:08;7.20;;;3.60;;
80123;SDS011;69433;48.642;9.142;2023-08-01T01:03:34;5.32;;;3.13;;
80123;SDS011;69433;48.642;9.142;2023-08-01T01:06:09;5.00;;;3.30;;
80123;SDS011;69433;48.642;9.142;2023-08-01T01:08:41;6.22;;;3.20;;
80123;SDS011;69433;48.642;9.142;2023-08-01T01:11:06;6.93;;;3.70;;
80123;SDS011;69433;48.642;9.142;2023-08-01T01:13:32;7.45;;;3.38;;
80123;SDS011;69433;48.642;9.142;2023-08-01T01:15:58;5.72;;;2.97;;
80123;SDS011;69433;48.642;9.142;2023-08-01T01:18:23;6.53;;;3.30;;
80123;SDS011;69433;48.642;9.142;2023-08-01T01:20:49;6.30;;;3.47;;
80123;SDS011;69433;48.642;9.142;2023-08-01T01:23:14;5.25;;;3.30;;
80123;SDS011;69433;48.642;9.142;2023-08-01T01:25:40;5.43;;;3.08;;
80123;SDS011;69433;48.642;9.142;2023-08-01T01:28:07;4.93;;;3.28;;
80123;SDS011;69433;48.642;9.142;2023-08-01T01:30:32;5.93;;;3.30;;
80123;SDS011;69433;48.642;9.142;2023-08-01T01:32:59;5.93;;;3.20;;
80123;SDS011;69433;48.642;9.142;2023-08-01T01:35:28;5.45;;;3.25;;
80123;SDS011;69433;48.642;9.142;2023-08-01T01:37:54;6.88;;;3.47;;
80123;SDS011;69433;48.642;9.142;2023-08-01T01:40:19;8.15;;;3.63;;
80123;SDS011;69433;48.642;9.142;2023-08-01T01:42:45;8.35;;;3.53;;
80123;SDS011;69433;48.642;9.142;2023-08-01T01:45:10;5.50;;;3.03;;
80123;SDS011;69433;48.642;9.142;2023-08-01T01:47:35;9.32;;;3.63;;
80123;SDS011;69433;48.642;9.142;2023-08-01T01:50:01;6.75;;;3.22;;
80123;SDS011;69433;48.642;9.142;2023-08-01T01:52:26;5.35;;;3.00;;
80123;SDS011;69433;48.642;9.142;2023-08-01T01:54:51;6.25;;;3.30;;
80123;SDS011;69433;48.642;9.142;2023-08-01T01:57:17;4.90;;;3.33;;
80123;SDS011;69433;48.642;9.142;2023-08-01T01:59:42;5.15;;;3.38;;
80123;SDS011;69433;48.642;9.142;2023-08-01T02:02:07;8.00;;;3.50;;
80123;SDS011;69433;48.642;9.142;2023-08-01T02:04:32;5.28;;;3.03;;
80123;SDS011;69433;48.642;9.142;2023-08-01T02:06:58;7.15;;;3.33;;
80123;SDS011;69433;48.642;9.142;2023-08-01T02:09:23;5.38;;;3.28;;
80123;SDS011;69433;48.642;9.142;2023-08-01T02:11:49;5.07;;;3.33;;
80123;SDS011;69433;48.642;9.142;2023-08-01T02:14:14;5.28;;;3.20;;
80123;SDS011;69433;48.642;9.142;2023-08-01T02:16:39;7.00;;;3.42;;
80123;SDS011;69433;48.642;9.142;2023-08-01T02:19:04;4.85;;;3.30;;
80123;SDS011;69433;48.642;9.142;2023-08-01T02:21:30;6.32;;;3.60;;
80123;SDS011;69433;48.642;9.142;2023-08-01T02:23:55;6.30;;;3.60;;
80123;SDS011;69433;48.642;9.142;2023-08-01T02:26:21;6.20;;;3.63;;
80123;SDS011;69433;48.642;9.142;2023-08-01T02:28:48;4.90;;;3.20;;
80123;SDS011;69433;48.642;9.142;2023-08-01T02:31:13;6.20;;;3.40;;
80123;SDS011;69433;48.642;9.142;2023-08-01T02:33:40;7.28;;;3.30;;
80123;SDS011;69433;48.642;9.142;2023-08-01T02:36:05;6.60;;;3.40;;
80123;SDS011;69433;48.642;9.142;2023-08-01T02:38:31;5.85;;;3.25;;
80123;SDS011;69433;48.642;9.142;2023-08-01T02:40:56;4.97;;;3.20;;
80123;SDS011;69433;48.642;9.142;2023-08-01T02:43:21;5.88;;;3.47;;
80123;SDS011;69433;48.642;9.142;2023-08-01T02:45:46;6.03;;;3.53;;
80123;SDS011;69433;48.642;9.142;2023-08-01T02:48:12;6.15;;;3.45;;
80123;SDS011;69433;48.642;9.142;2023-08-01T02:50:37;6.30;;;3.65;;
80123;SDS011;69433;48.642;9.142;2023-08-01T02:53:04;6.50;;;3.50;;
80123;SDS011;69433;48.642;9.142;2023-08-01T02:55:29;5.70;;;3.60;;
80123;SDS011;69433;48.642;9.142;2023-08-01T02:57:55;5.88;;;3.63;;
80123;SDS011;69433;48.642;9.142;2023-08-01T03:00:21;6.35;;;3.30;;
80123;SDS011;69433;48.642;9.142;2023-08-01T03:02:46;6.07;;;3.42;;
80123;SDS011;69433;48.642;9.142;2023-08-01T03:05:12;6.25;;;3.42;;
80123;SDS011;69433;48.642;9.142;2023-08-01T03:07:37;6.38;;;3.40;;
80123;SDS011;69433;48.642;9.142;2023-08-01T03:10:02;4.93;;;3.00;;
80123;SDS011;69433;48.642;9.142;2023-08-01T03:12:28;5.70;;;3.28;;
80123;SDS011;69433;48.642;9.142;2023-08-01T03:14:53;7.15;;;3.40;;
80123;SDS011;69433;48.642;9.142;2023-08-01T03:17:19;5.38;;;3.40;;
80123;SDS011;69433;48.642;9.142;2023-08-01T03:19:44;4.97;;;3.15;;
80123;SDS011;69433;48.642;9.142;2023-08-01T03:22:11;7.32;;;3.22;;
80123;SDS011;69433;48.642;9.142;2023-08-01T03:24:37;5.40;;;3.22;;
80123;SDS011;69433;48.642;9.142;2023-08-01T03:27:03;6.63;;;3.17;;
80123;SDS011;69433;48.642;9.142;2023-08-01T03:29:29;6.50;;;3.45;;
80123;SDS011;69433;48.642;9.142;2023-08-01T03:31:54;5.05;;;3.35;;
80123;SDS011;69433;48.642;9.142;2023-08-01T03:34:20;5.95;;;3.67;;
80123;SDS011;69433;48.642;9.142;2023-08-01T03:36:45;6.13;;;3.20;;
80123;SDS011;69433;48.642;9.142;2023-08-01T03:39:11;5.32;;;3.17;;
80123;SDS011;69433;48.642;9.142;2023-08-01T03:41:36;7.45;;;3.13;;
80123;SDS011;69433;48.642;9.142;2023-08-01T03:44:03;5.38;;;3.15;;
80123;SDS011;69433;48.642;9.142;2023-08-01T03:46:30;6.93;;;3.40;;
80123;SDS011;69433;48.642;9.142;2023-08-01T03:48:55;6.10;;;3.05;;
80123;SDS011;69433;48.642;9.142;2023-08-01T03:51:20;5.88;;;3.25;;
80123;SDS011;69433;48.642;9.142;2023-08-01T03:53:47;5.25;;;3.28;;
80123;SDS011;69433;48.642;9.142;2023-08-01T03:56:13;6.55;;;3.28;;
80123;SDS011;69433;48.642;9.142;2023-08-01T03:58:38;6.03;;;3.25;;
80123;SDS011;69433;48.642;9.142;2023-08-01T04:01:03;7.50;;;3.47;;
80123;SDS011;69433;48.642;9.142;2023-08-01T04:03:31;7.03;;;3.50;;
80123;SDS011;69433;48.642;9.142;2023-08-01T04:05:57;5.78;;;2.78;;
80123;SDS011;69433;48.642;9.142;2023-08-01T04:08:22;6.25;;;3.25;;
80123;SDS011;69433;48.642;9.142;2023-08-01T04:10:48;5.78;;;3.63;;
80123;SDS011;69433;48.642;9.142;2023-08-01T04:13:15;5.13;;;3.28;;
80123;SDS011;69433;48.642;9.142;2023-08-01T04:15:40;8.05;;;3.35;;
80123;SDS011;69433;48.642;9.142;2023-08-01T04:18:05;7.15;;;3.53;;
80123;SDS011;69433;48.642;9.142;2023-08-01T04:20:30;10.23;;;3.95;;
80123;SDS011;69433;48.642;9.142;2023-08-01T04:22:56;7.47;;;3.63;;
80123;SDS011;69433;48.642;9.142;2023-08-01T04:25:27;6.90;;;3.33;;
80123;SDS011;69433;48.642;9.142;2023-08-01T04:27:52;8.25;;;3.63;;
80123;SDS011;69433;48.642;9.142;2023-08-01T04:30:18;5.65;;;3.08;;
80123;SDS011;69433;48.642;9.142;2023-08-01T04:32:43;6.07;;;3.33;;
80123;SDS011;69433;48.642;9.142;2023-08-01T04:35:09;6.65;;;3.10;;
80123;SDS011;69433;48.642;9.142;2023-08-01T04:37:34;5.65;;;3.17;;
80123;SDS011;69433;48.642;9.142;2023-08-01T04:40:02;6.57;;;3.33;;
80123;SDS011;69433;48.642;9.142;2023-08-01T04:42:29;7.07;;;3.30;;
80123;SDS011;69433;48.642;9.142;2023-08-01T04:44:55;4.93;;;3.13;;
80123;SDS011;69433;48.642;9.142;2023-08-01T04:47:20;5.03;;;3.03;;
80123;SDS011;69433;48.642;9.142;2023-08-01T04:49:46;5.63;;;3.28;;
80123;SDS011;69433;48.642;9.142;2023-08-01T04:52:11;4.80;;;2.80;;
80123;SDS011;69433;48.642;9.142;2023-08-01T04:54:37;8.00;;;3.72;;
80123;SDS011;69433;48.642;9.142;2023-08-01T04:57:03;9.05;;;3.13;;
80123;SDS011;69433;48.642;9.142;2023-08-01T04:59:28;6.35;;;3.58;;
80123;SDS011;69433;48.642;9.142;2023-08-01T05:01:54;6.70;;;3.40;;
80123;SDS011;69433;48.642;9.142;2023-08-01T05:04:19;6.38;;;3.00;;
80123;SDS011;69433;48.642;9.142;2023-08-01T05:06:44;7.68;;;3.78;;
80123;SDS011;69433;48.642;9.142;2023-08-01T05:09:09;7.88;;;3.35;;
80123;SDS011;69433;48.642;9.142;2023-08-01T05:11:37;7.22;;;3.28;;
80123;SDS011;69433;48.642;9.142;2023-08-01T05:14:02;5.15;;;3.13;;
80123;SDS011;69433;48.642;9.142;2023-08-01T05:16:27;7.72;;;3.40;;
80123;SDS011;69433;48.642;9.142;2023-08-01T05:18:53;5.57;;;3.15;;
80123;SDS011;69433;48.642;9.142;2023-08-01T05:21:18;4.78;;;3.10;;
80123;SDS011;69433;48.642;9.142;2023-08-01T05:23:43;6.47;;;3.35;;
80123;SDS011;69433;48.642;9.142;2023-08-01T05:26:08;5.68;;;3.08;;
80123;SDS011;69433;48.642;9.142;2023-08-01T05:28:34;5.35;;;3.13;;
80123;SDS011;69433;48.642;9.142;2023-08-01T05:30:59;6.72;;;3.00;;
80123;SDS011;69433;48.642;9.142;2023-08-01T05:33:30;6.30;;;3.20;;
80123;SDS011;69433;48.642;9.142;2023-08-01T05:35:56;6.90;;;3.25;;
80123;SDS011;69433;48.642;9.142;2023-08-01T05:38:23;5.60;;;3.10;;
80123;SDS011;69433;48.642;9.142;2023-08-01T05:40:49;5.43;;;3.30;;
80123;SDS011;69433;48.642;9.142;2023-08-01T05:43:14;5.13;;;3.22;;
80123;SDS011;69433;48.642;9.142;2023-08-01T05:45:40;6.03;;;3.30;;
80123;SDS011;69433;48.642;9.142;2023-08-01T05:48:06;7.95;;;3.92;;
80123;SDS011;69433;48.642;9.142;2023-08-01T05:50:31;5.22;;;3.33;;
80123;SDS011;69433;48.642;9.142;2023-08-01T05:52:56;5.93;;;3.05;;
80123;SDS011;69433;48.642;9.142;2023-08-01T05:55:22;6.13;;;2.92;;
80123;SDS011;69433;48.642;9.142;2023-08-01T05:57:47;4.93;;;3.30;;
80123;SDS011;69433;48.642;9.142;2023-08-01T06:00:15;5.85;;;3.25;;
80123;SDS011;69433;48.642;9.142;2023-08-01T06:02:40;6.85;;;3.13;;
80123;SDS011;69433;48.642;9.142;2023-08-01T06:05:06;4.90;;;3.28;;
80123;SDS011;69433;48.642;9.142;2023-08-01T06:07:31;5.82;;;3.20;;
80123;SDS011;69433;48.642;9.142;2023-08-01T06:09:56;6.20;;;3.22;;
80123;SDS011;69433;48.642;9.142;2023-08-01T06:12:22;5.85;;;2.95;;
80123;SDS011;69433;48.642;9.142;2023-08-01T06:14:47;5.03;;;3.05;;
80123;SDS011;69433;48.642;9.142;2023-08-01T06:17:16;4.88;;;2.97;;
80123;SDS011;69433;48.642;9.142;2023-08-01T06:19:42;5.32;;;2.80;;
80123;SDS011;69433;48.642;9.142;2023-08-01T06:22:07;5.88;;;3.28;;
80123;SDS011;69433;48.642;9.142;2023-08-01T06:24:33;5.38;;;3.40;;
80123;SDS011;69433;48.642;9.142;2023-08-01T06:26:58;7.05;;;3.30;;
80123;SDS011;69433;48.642;9.142;2023-08-01T06:29:24;5.15;;;3.15;;
80123;SDS011;69433;48.642;9.142;2023-08-01T06:31:50;6.72;;;3.08;;
80123;SDS011;69433;48.642;9.142;2023-08-01T06:34:15;5.55;;;3.38;;
80123;SDS011;69433;48.642;9.142;2023-08-01T06:36:40;4.90;;;3.00;;
80123;SDS011;69433;48.642;9.142;2023-08-01T06:39:06;6.32;;;3.75;;
80123;SDS011;69433;48.642;9.142;2023-08-01T06:41:32;5.07;;;3.08;;
80123;SDS011;69433;48.642;9.142;2023-08-01T06:43:57;5.60;;;2.97;;
80123;SDS011;69433;48.642;9.142;2023-08-01T06:46:22;6.10;;;3.03;;
80123;SDS011;69433;48.642;9.142;2023-08-01T06:48:48;6.55;;;3.08;;
80123;SDS011;69433;48.642;9.142;2023-08-01T06:51:15;7.30;;;3.17;;
80123;SDS011;69433;48.642;9.142;2023-08-01T06:53:40;6.93;;;3.13;;
80123;SDS011;69433;48.642;9.142;2023-08-01T06:56:06;8.60;;;3.30;;
80123;SDS011;69433;48.642;9.142;2023-08-01T06:58:31;6.25;;;3.30;;
80123;SDS011;69433;48.642;9.142;2023-08-01T07:00:57;7.35;;;3.25;;
80123;SDS011;69433;48.642;9.142;2023-08-01T07:03:22;6.15;;;3.00;;
80123;SDS011;69433;48.642;9.142;2023-08-01T07:05:47;7.72;;;3.45;;
80123;SDS011;69433;48.642;9.142;2023-08-01T07:08:13;6.40;;;2.95;;
80123;SDS011;69433;48.642;9.142;2023-08-01T07:10:38;6.43;;;2.92;;
80123;SDS011;69433;48.642;9.142;2023-08-01T07:13:03;5.72;;;3.15;;
80123;SDS011;69433;48.642;9.142;2023-08-01T07:15:32;5.45;;;3.30;;
80123;SDS011;69433;48.642;9.142;2023-08-01T07:17:58;6.18;;;3.10;;
80123;SDS011;69433;48.642;9.142;2023-08-01T07:20:23;7.63;;;3.22;;
80123;SDS011;69433;48.642;9.142;2023-08-01T07:22:48;7.13;;;3.17;;
80123;SDS011;69433;48.642;9.142;2023-08-01T07:25:14;5.13;;;3.42;;
80123;SDS011;69433;48.642;9.142;2023-08-01T07:27:40;5.45;;;3.20;;
80123;SDS011;69433;48.642;9.142;2023-08-01T07:30:06;7.78;;;3.10;;
80123;SDS011;69433;48.642;9.142;2023-08-01T07:32:32;5.22;;;2.95;;
80123;SDS011;69433;48.642;9.142;2023-08-01T07:34:57;7.63;;;3.47;;
80123;SDS011;69433;48.642;9.142;2023-08-01T07:37:23;5.20;;;3.05;;
80123;SDS011;69433;48.642;9.142;2023-08-01T07:42:17;6.93;;;2.90;;
80123;SDS011;69433;48.642;9.142;2023-08-01T07:44:42;6.43;;;3.50;;
80123;SDS011;69433;48.642;9.142;2023-08-01T07:47:10;4.70;;;2.88;;
80123;SDS011;69433;48.642;9.142;2023-08-01T07:49:36;7.35;;;3.03;;
80123;SDS011;69433;48.642;9.142;2023-08-01T07:52:01;6.22;;;3.28;;
80123;SDS011;69433;48.642;9.142;2023-08-01T07:54:26;6.47;;;2.85;;
80123;SDS011;69433;48.642;9.142;2023-08-01T07:56:52;4.55;;;3.05;;
80123;SDS011;69433;48.642;9.142;2023-08-01T07:59:17;5.57;;;3.33;;
80123;SDS011;69433;48.642;9.142;2023-08-01T08:01:42;6.07;;;3.05;;
80123;SDS011;69433;48.642;9.142;2023-08-01T08:04:07;6.65;;;3.28;;
80123;SDS011;69433;48.642;9.142;2023-08-01T08:06:33;6.20;;;3.20;;
80123;SDS011;69433;48.642;9.142;2023-08-01T08:08:58;4.22;;;2.80;;
80123;SDS011;69433;48.642;9.142;2023-08-01T08:11:23;6.35;;;2.92;;
80123;SDS011;69433;48.642;9.142;2023-08-01T08:13:48;6.22;;;3.20;;
80123;SDS011;69433;48.642;9.142;2023-08-01T08:16:14;4.68;;;2.70;;
80123;SDS011;69433;48.642;9.142;2023-08-01T08:18:39;5.47;;;3.03;;
80123;SDS011;69433;48.642;9.142;2023-08-01T08:21:04;5.10;;;2.80;;
80123;SDS011;69433;48.642;9.142;2023-08-01T08:23:30;5.93;;;3.42;;
80123;SDS011;69433;48.642;9.142;2023-08-01T08:25:59;4.88;;;2.85;;
80123;SDS011;69433;48.642;9.142;2023-08-01T08:28:28;5.90;;;3.42;;
80123;SDS011;69433;48.642;9.142;2023-08-01T08:30:55;6.25;;;3.05;;
80123;SDS011;69433;48.642;9.142;2023-08-01T08:33:21;4.50;;;3.00;;
80123;SDS011;69433;48.642;9.142;2023-08-01T08:35:46;4.97;;;2.92;;
80123;SDS011;69433;48.642;9.142;2023-08-01T08:38:12;5.05;;;3.10;;
80123;SDS011;69433;48.642;9.142;2023-08-01T08:40:37;5.20;;;2.97;;
80123;SDS011;69433;48.642;9.142;2023-08-01T08:43:06;6.20;;;3.10;;
80123;SDS011;69433;48.642;9.142;2023-08-01T08:45:34;5.38;;;2.60;;
80123;SDS011;69433;48.642;9.142;2023-08-01T08:48:01;5.63;;;3.00;;
80123;SDS011;69433;48.642;9.142;2023-08-01T08:50:32;5.20;;;3.00;;
80123;SDS011;69433;48.642;9.142;2023-08-01T08:52:58;4.20;;;2.78;;
80123;SDS011;69433;48.642;9.142;2023-08-01T08:55:24;4.78;;;3.20;;
80123;SDS011;69433;48.642;9.142;2023-08-01T08:57:52;5.35;;;2.92;;
80123;SDS011;69433;48.642;9.142;2023-08-01T09:00:17;4.65;;;2.85;;
80123;SDS011;69433;48.642;9.142;2023-08-01T09:02:44;4.20;;;2.92;;
80123;SDS011;69433;48.642;9.142;2023-08-01T09:05:10;5.85;;;2.70;;
80123;SDS011;69433;48.642;9.142;2023-08-01T09:07:36;4.93;;;2.75;;
80123;SDS011;69433;48.642;9.142;2023-08-01T09:10:06;5.50;;;2.85;;
80123;SDS011;69433;48.642;9.142;2023-08-01T09:12:35;5.13;;;2.90;;
80123;SDS011;69433;48.642;9.142;2023-08-01T09:15:00;5.85;;;3.25;;
80123;SDS011;69433;48.642;9.142;2023-08-01T09:17:26;4.70;;;2.67;;
80123;SDS011;69433;48.642;9.142;2023-08-01T09:19:55;5.53;;;2.80;;
80123;SDS011;69433;48.642;9.142;2023-08-01T09:22:28;5.57;;;2.70;;
80123;SDS011;69433;48.642;9.142;2023-08-01T09:24:53;5.40;;;2.85;;
80123;SDS011;69433;48.642;9.142;2023-08-01T09:27:20;5.47;;;2.80;;
80123;SDS011;69433;48.642;9.142;2023-08-01T09:29:46;4.90;;;3.13;;
80123;SDS011;69433;48.642;9.142;2023-08-01T09:32:12;4.15;;;2.92;;
80123;SDS011;69433;48.642;9.142;2023-08-01T09:34:38;4.72;;;2.40;;
80123;SDS011;69433;48.642;9.142;2023-08-01T09:37:04;4.05;;;2.83;;
80123;SDS011;69433;48.642;9.142;2023-08-01T09:39:29;4.63;;;2.80;;
80123;SDS011;69433;48.642;9.142;2023-08-01T09:41:58;4.20;;;2.70;;
80123;SDS011;69433;48.642;9.142;2023-08-01T09:44:28;3.92;;;2.42;;
80123;SDS011;69433;48.642;9.142;2023-08-01T09:46:55;3.83;;;2.80;;
80123;SDS011;69433;48.642;9.142;2023-08-01T09:49:28;5.20;;;2.78;;
80123;SDS011;69433;48.642;9.142;2023-08-01T09:51:54;5.60;;;2.70;;
80123;SDS011;69433;48.642;9.142;2023-08-01T09:54:20;5.32;;;2.72;;
80123;SDS011;69433;48.642;9.142;2023-08-01T09:56:47;5.75;;;2.80;;
80123;SDS011;69433;48.642;9.142;2023-08-01T09:59:16;5.72;;;2.92;;
80123;SDS011;69433;48.642;9.142;2023-08-01T10:01:44;4.18;;;2.80;;
80123;SDS011;69433;48.642;9.142;2023-08-01T10:04:12;5.10;;;2.63;;
80123;SDS011;69433;48.642;9.142;2023-08-01T10:06:38;4.45;;;2.95;;
80123;SDS011;69433;48.642;9.142;2023-08-01T10:09:11;4.50;;;2.80;;
80123;SDS011;69433;48.642;9.142;2023-08-01T10:11:38;4.55;;;2.63;;
80123;SDS011;69433;48.642;9.142;2023-08-01T10:14:03;5.78;;;2.72;;
80123;SDS011;69433;48.642;9.142;2023-08-01T10:16:29;4.70;;;2.88;;
80123;SDS011;69433;48.642;9.142;2023-08-01T10:18:55;4.13;;;2.60;;
80123;SDS011;69433;48.642;9.142;2023-08-01T10:21:21;3.63;;;2.53;;
80123;SDS011;69433;48.642;9.142;2023-08-01T10:23:47;4.75;;;2.85;;
80123;SDS011;69433;48.642;9.142;2023-08-01T10:26:13;5.32;;;2.70;;
80123;SDS011;69433;48.642;9.142;2023-08-01T10:28:40;4.18;;;2.63;;
80123;SDS011;69433;48.642;9.142;2023-08-01T10:31:13;3.80;;;2.67;;
80123;SDS011;69433;48.642;9.142;2023-08-01T10:33:40;4.22;;;2.60;;
80123;SDS011;69433;48.642;9.142;2023-08-01T10:36:13;6.50;;;3.38;;
80123;SDS011;69433;48.642;9.142;2023-08-01T10:38:51;4.65;;;2.83;;
80123;SDS011;69433;48.642;9.142;2023-08-01T10:41:28;4.30;;;2.63;;
80123;SDS011;69433;48.642;9.142;2023-08-01T10:46:50;4.13;;;2.65;;
80123;SDS011;69433;48.642;9.142;2023-08-01T10:49:17;3.13;;;2.42;;
80123;SDS011;69433;48.642;9.142;2023-08-01T10:51:43;3.35;;;2.35;;
80123;SDS011;69433;48.642;9.142;2023-08-01T10:54:20;4.22;;;2.78;;
80123;SDS011;69433;48.642;9.142;2023-08-01T10:56:52;4.68;;;2.50;;
80123;SDS011;69433;48.642;9.142;2023-08-01T10:59:19;3.92;;;2.50;;
80123;SDS011;69433;48.642;9.142;2023-08-01T11:01:52;3.58;;;2.35;;
80123;SDS011;69433;48.642;9.142;2023-08-01T11:04:22;4.05;;;2.80;;
80123;SDS011;69433;48.642;9.142;2023-08-01T11:06:52;4.07;;;2.40;;
80123;SDS011;69433;48.642;9.142;2023-08-01T11:09:19;4.05;;;2.60;;
80123;SDS011;69433;48.642;9.142;2023-08-01T11:11:49;3.58;;;2.33;;
80123;SDS011;69433;48.642;9.142;2023-08-01T11:14:21;4.32;;;2.35;;
80123;SDS011;69433;48.642;9.142;2023-08-01T11:16:48;4.60;;;2.35;;
80123;SDS011;69433;48.642;9.142;2023-08-01T11:19:18;4.30;;;2.03;;
80123;SDS011;69433;48.642;9.142;2023-08-01T11:21:55;4.63;;;2.25;;
80123;SDS011;69433;48.642;9.142;2023-08-01T11:24:22;5.10;;;2.20;;
80123;SDS011;69433;48.642;9.142;2023-08-01T11:26:48;6.65;;;1.98;;
80123;SDS011;69433;48.642;9.142;2023-08-01T11:29:15;3.67;;;2.00;;
80123;SDS011;69433;48.642;9.142;2023-08-01T11:31:41;2.72;;;1.73;;
80123;SDS011;69433;48.642;9.142;2023-08-01T11:34:17;3.75;;;1.88;;
80123;SDS011;69433;48.642;9.142;2023-08-01T11:36:43;2.63;;;1.70;;
80123;SDS011;69433;48.642;9.142;2023-08-01T11:39:10;4.07;;;1.75;;
80123;SDS011;69433;48.642;9.142;2023-08-01T11:41:37;3.38;;;1.77;;
80123;SDS011;69433;48.642;9.142;2023-08-01T11:44:03;4.63;;;1.67;;
80123;SDS011;69433;48.642;9.142;2023-08-01T11:46:32;12.27;;;4.85;;
80123;SDS011;69433;48.642;9.142;2023-08-01T11:48:59;18.98;;;6.05;;
80123;SDS011;69433;48.642;9.142;2023-08-01T11:51:25;15.45;;;8.65;;
80123;SDS011;69433;48.642;9.142;2023-08-01T11:53:58;31.90;;;14.18;;
80123;SDS011;69433;48.642;9.142;2023-08-01T11:56:29;29.10;;;11.82;;
80123;SDS011;69433;48.642;9.142;2023-08-01T11:58:55;22.67;;;11.43;;
80123;SDS011;69433;48.642;9.142;2023-08-01T12:01:22;19.85;;;9.15;;
80123;SDS011;69433;48.642;9.142;2023-08-01T12:06:22;19.73;;;9.40;;
80123;SDS011;69433;48.642;9.142;2023-08-01T12:08:49;20.90;;;9.02;;
80123;SDS011;69433;48.642;9.142;2023-08-01T12:13:47;18.35;;;9.23;;
80123;SDS011;69433;48.642;9.142;2023-08-01T12:16:24;15.93;;;7.97;;
80123;SDS011;69433;48.642;9.142;2023-08-01T12:18:49;14.00;;;5.72;;
80123;SDS011;69433;48.642;9.142;2023-08-01T12:21:14;9.93;;;4.57;;
80123;SDS011;69433;48.642;9.142;2023-08-01T12:23:40;10.65;;;4.63;;
80123;SDS011;69433;48.642;9.142;2023-08-01T12:26:05;7.03;;;3.63;;
80123;SDS011;69433;48.642;9.142;2023-08-01T12:28:32;6.63;;;3.60;;
80123;SDS011;69433;48.642;9.142;2023-08-01T12:30:57;6.90;;;3.65;;
80123;SDS011;69433;48.642;9.142;2023-08-01T12:33:23;7.70;;;4.00;;
80123;SDS011;69433;48.642;9.142;2023-08-01T12:35:49;8.38;;;3.53;;
80123;SDS011;69433;48.642;9.142;2023-08-01T12:38:14;7.28;;;3.50;;
80123;SDS011;69433;48.642;9.142;2023-08-01T12:40:39;6.20;;;3.72;;
80123;SDS011;69433;48.642;9.142;2023-08-01T12:43:05;6.97;;;3.40;;
80123;SDS011;69433;48.642;9.142;2023-08-01T12:45:30;5.85;;;3.15;;
80123;SDS011;69433;48.642;9.142;2023-08-01T12:47:55;6.63;;;3.08;;
80123;SDS011;69433;48.642;9.142;2023-08-01T12:50:21;6.57;;;3.28;;
80123;SDS011;69433;48.642;9.142;2023-08-01T12:52:46;8.13;;;3.53;;
80123;SDS011;69433;48.642;9.142;2023-08-01T12:55:11;7.40;;;3.47;;
80123;SDS011;69433;48.642;9.142;2023-08-01T12:57:37;6.25;;;3.10;;
80123;SDS011;69433;48.642;9.142;2023-08-01T13:00:02;6.07;;;3.22;;
80123;SDS011;69433;48.642;9.142;2023-08-01T13:02:27;5.63;;;3.00;;
80123;SDS011;69433;48.642;9.142;2023-08-01T13:04:53;7.50;;;3.22;;
80123;SDS011;69433;48.642;9.142;2023-08-01T13:07:18;6.88;;;2.95;;
80123;SDS011;69433;48.642;9.142;2023-08-01T13:09:43;6.43;;;3.00;;
80123;SDS011;69433;48.642;9.142;2023-08-01T13:12:09;5.40;;;2.75;;
80123;SDS011;69433;48.642;9.142;2023-08-01T13:14:34;7.28;;;3.58;;
80123;SDS011;69433;48.642;9.142;2023-08-01T13:16:59;6.50;;;2.97;;
80123;SDS011;69433;48.642;9.142;2023-08-01T13:19:25;5.70;;;2.95;;
80123;SDS011;69433;48.642;9.142;2023-08-01T13:21:50;8.63;;;3.10;;
80123;SDS011;69433;48.642;9.142;2023-08-01T13:24:16;6.25;;;3.13;;
80123;SDS011;69433;48.642;9.142;2023-08-01T13:26:41;4.78;;;2.80;;
80123;SDS011;69433;48.642;9.142;2023-08-01T13:29:06;7.03;;;2.92;;
80123;SDS011;69433;48.642;9.142;2023-08-01T13:31:32;6.28;;;2.80;;
80123;SDS011;69433;48.642;9.142;2023-08-01T13:33:57;6.20;;;3.03;;
80123;SDS011;69433;48.642;9.142;2023-08-01T13:36:28;8.63;;;3.50;;
80123;SDS011;69433;48.642;9.142;2023-08-01T13:38:54;5.68;;;2.65;;
80123;SDS011;69433;48.642;9.142;2023-08-01T13:41:19;5.45;;;3.17;;
80123;SDS011;69433;48.642;9.142;2023-08-01T13:43:44;5.85;;;2.75;;
80123;SDS011;69433;48.642;9.142;2023-08-01T13:46:14;4.68;;;2.67;;
80123;SDS011;69433;48.642;9.142;2023-08-01T13:48:41;6.07;;;2.60;;
80123;SDS011;69433;48.642;9.142;2023-08-01T13:51:07;4.78;;;2.60;;
80123;SDS011;69433;48.642;9.142;2023-08-01T13:53:32;6.35;;;2.75;;
80123;SDS011;69433;48.642;9.142;2023-08-01T13:55:58;5.25;;;2.47;;
80123;SDS011;69433;48.642;9.142;2023-08-01T13:58:24;5.70;;;2.72;;
80123;SDS011;69433;48.642;9.142;2023-08-01T14:00:49;5.88;;;2.55;;
80123;SDS011;69433;48.642;9.142;2023-08-01T14:03:14;5.13;;;2.80;;
80123;SDS011;69433;48.642;9.142;2023-08-01T14:05:39;4.60;;;2.80;;
80123;SDS011;69433;48.642;9.142;2023-08-01T14:08:05;4.13;;;2.38;;
80123;SDS011;69433;48.642;9.142;2023-08-01T14:10:30;6.55;;;2.53;;
80123;SDS011;69433;48.642;9.142;2023-08-01T14:12:58;4.70;;;2.42;;
80123;SDS011;69433;48.642;9.142;2023-08-01T14:15:23;4.00;;;2.30;;
80123;SDS011;69433;48.642;9.142;2023-08-01T14:17:48;4.38;;;2.53;;
80123;SDS011;69433;48.642;9.142;2023-08-01T14:20:14;6.40;;;3.38;;
80123;SDS011;69433;48.642;9.142;2023-08-01T14:22:40;24.77;;;11.43;;
80123;SDS011;69433;48.642;9.142;2023-08-01T14:25:07;24.15;;;11.90;;
80123;SDS011;69433;48.642;9.142;2023-08-01T14:27:33;34.25;;;16.13;;
80123;SDS011;69433;48.642;9.142;2023-08-01T14:30:01;23.50;;;11.95;;
80123;SDS011;69433;48.642;9.142;2023-08-01T14:32:27;21.10;;;10.60;;
80123;SDS011;69433;48.642;9.142;2023-08-01T14:34:53;26.08;;;11.65;;
80123;SDS011;69433;48.642;9.142;2023-08-01T14:37:19;30.02;;;12.40;;
80123;SDS011;69433;48.642;9.142;2023-08-01T14:39:48;27.15;;;12.55;;
80123;SDS011;69433;48.642;9.142;2023-08-01T14:42:14;25.73;;;10.85;;
80123;SDS011;69433;48.642;9.142;2023-08-01T14:44:39;19.65;;;10.55;;
80123;SDS011;69433;48.642;9.142;2023-08-01T14:47:07;25.02;;;11.60;;
80123;SDS011;69433;48.642;9.142;2023-08-01T14:49:32;22.00;;;9.13;;